sensor_id;sensor_type;location;lat;lon;timestamp;pressure;altitude;pressure_sealevel;temperature;humidity
38289;BME280;24092;53.370;-6.588;2023-04-06T00:00:15;100739.17;;;8.48;100.00
38289;BME280;24092;53.370;-6.588;2023-04-06T00:02:42;100735.95;;;8.60;100.00
38289;BME280;24092;53.370;-6.588;2023-04-06T00:05:09;100730.01;;;8.38;100.00
38289;BME280;24092;53.370;-6.588;2023-04-06T00:07:37;100722.16;;;7.39;100.00
38289;BME280;24092;53.370;-6.588;2023-04-06T00:10:05;100714.72;;;6.20;100.00
38289;BME280;24092;53.370;-6.588;2023-04-06T00:12:32;100710.42;;;5.09;100.00
38289;BME280;24092;53.370;-6.588;2023-04-06T00:14:59;100712.79;;;5.80;100.00
38289;BME280;24092;53.370;-6.588;2023-04-06T00:17:27;100711.78;;;7.06;100.00
38289;BME280;24092;53.370;-6.588;2023-04-06T00:19:54;100715.28;;;8.15;100.00
38289;BME280;24092;53.370;-6.588;2023-04-06T00:22:21;100726.42;;;8.81;100.00
38289;BME280;24092;53.370;-6.588;2023-04-06T00:24:48;100730.47;;;8.03;100.00
38289;BME280;24092;53.370;-6.588;2023-04-06T00:27:15;100727.67;;;7.61;100.00
38289;BME280;24092;53.370;-6.588;2023-04-06T00:29:43;100725.52;;;7.66;100.00
38289;BME280;24092;53.370;-6.588;2023-04-06T00:32:11;100721.00;;;6.73;100.00
38289;BME280;24092;53.370;-6.588;2023-04-06T00:34:38;100717.16;;;7.24;100.00
38289;BME280;24092;53.370;-6.588;2023-04-06T00:37:05;100713.57;;;7.21;100.00
38289;BME280;24092;53.370;-6.588;2023-04-06T00:39:32;100716.82;;;8.00;100.00
38289;BME280;24092;53.370;-6.588;2023-04-06T00:41:59;100719.56;;;8.20;100.00
38289;BME280;24092;53.370;-6.588;2023-04-06T00:44:27;100723.39;;;8.42;100.00
38289;BME280;24092;53.370;-6.588;2023-04-06T00:46:54;100723.10;;;8.33;100.00
38289;BME280;24092;53.370;-6.588;2023-04-06T00:49:21;100725.61;;;8.02;100.00
38289;BME280;24092;53.370;-6.588;2023-04-06T00:51:48;100726.34;;;7.96;100.00
38289;BME280;24092;53.370;-6.588;2023-04-06T00:54:15;100725.49;;;7.84;100.00
38289;BME280;24092;53.370;-6.588;2023-04-06T00:56:42;100725.28;;;8.32;100.00
38289;BME280;24092;53.370;-6.588;2023-04-06T00:59:10;100726.08;;;8.05;100.00
38289;BME280;24092;53.370;-6.588;2023-04-06T01:01:37;100727.66;;;8.03;100.00
38289;BME280;24092;53.370;-6.588;2023-04-06T01:04:04;100725.68;;;7.92;100.00
38289;BME280;24092;53.370;-6.588;2023-04-06T01:06:31;100726.30;;;7.76;100.00
38289;BME280;24092;53.370;-6.588;2023-04-06T01:08:59;100724.45;;;7.81;100.00
38289;BME280;24092;53.370;-6.588;2023-04-06T01:11:26;100720.17;;;7.68;100.00
38289;BME280;24092;53.370;-6.588;2023-04-06T01:13:53;100716.47;;;7.41;100.00
38289;BME280;24092;53.370;-6.588;2023-04-06T01:16:20;100713.18;;;7.51;100.00
38289;BME280;24092;53.370;-6.588;2023-04-06T01:18:47;100713.96;;;7.01;100.00
38289;BME280;24092;53.370;-6.588;2023-04-06T01:21:14;100713.71;;;7.07;100.00
38289;BME280;24092;53.370;-6.588;2023-04-06T01:23:43;100713.67;;;6.60;100.00
38289;BME280;24092;53.370;-6.588;2023-04-06T01:26:10;100719.97;;;6.03;100.00
38289;BME280;24092;53.370;-6.588;2023-04-06T01:28:38;100722.79;;;5.10;100.00
38289;BME280;24092;53.370;-6.588;2023-04-06T01:31:05;100718.67;;;4.97;100.00
38289;BME280;24092;53.370;-6.588;2023-04-06T01:33:32;100718.48;;;4.92;100.00
38289;BME280;24092;53.370;-6.588;2023-04-06T01:36:13;100716.08;;;4.55;100.00
38289;BME280;24092;53.370;-6.588;2023-04-06T01:38:40;100715.32;;;4.72;100.00
38289;BME280;24092;53.370;-6.588;2023-04-06T01:41:08;100713.14;;;5.12;100.00
38289;BME280;24092;53.370;-6.588;2023-04-06T01:43:35;100706.85;;;5.04;100.00
38289;BME280;24092;53.370;-6.588;2023-04-06T01:46:03;100709.11;;;5.54;100.00
38289;BME280;24092;53.370;-6.588;2023-04-06T01:48:31;100705.52;;;5.57;100.00
38289;BME280;24092;53.370;-6.588;2023-04-06T01:50:58;100698.14;;;6.28;100.00
38289;BME280;24092;53.370;-6.588;2023-04-06T01:53:25;100697.32;;;6.30;100.00
38289;BME280;24092;53.370;-6.588;2023-04-06T01:55:52;100693.92;;;6.55;100.00
38289;BME280;24092;53.370;-6.588;2023-04-06T01:58:19;100694.77;;;6.78;100.00
38289;BME280;24092;53.370;-6.588;2023-04-06T02:00:46;100692.37;;;6.50;100.00
38289;BME280;24092;53.370;-6.588;2023-04-06T02:03:13;100693.01;;;7.06;100.00
38289;BME280;24092;53.370;-6.588;2023-04-06T02:05:40;100693.96;;;7.13;100.00
38289;BME280;24092;53.370;-6.588;2023-04-06T02:08:08;100691.00;;;7.20;100.00
38289;BME280;24092;53.370;-6.588;2023-04-06T02:10:35;100688.34;;;7.39;100.00
38289;BME280;24092;53.370;-6.588;2023-04-06T02:13:02;100688.56;;;7.16;100.00
38289;BME280;24092;53.370;-6.588;2023-04-06T02:15:29;100685.83;;;7.90;100.00
38289;BME280;24092;53.370;-6.588;2023-04-06T02:17:57;100683.94;;;7.51;100.00
38289;BME280;24092;53.370;-6.588;2023-04-06T02:20:24;100684.69;;;7.92;100.00
38289;BME280;24092;53.370;-6.588;2023-04-06T02:22:52;100684.28;;;7.69;100.00
38289;BME280;24092;53.370;-6.588;2023-04-06T02:25:19;100683.98;;;7.13;100.00
38289;BME280;24092;53.370;-6.588;2023-04-06T02:27:46;100682.74;;;7.34;100.00
38289;BME280;24092;53.370;-6.588;2023-04-06T02:30:13;100681.66;;;7.76;100.00
38289;BME280;24092;53.370;-6.588;2023-04-06T02:32:41;100679.31;;;7.00;100.00
38289;BME280;24092;53.370;-6.588;2023-04-06T02:35:08;100683.75;;;7.48;100.00
38289;BME280;24092;53.370;-6.588;2023-04-06T02:37:36;100682.62;;;7.65;100.00
38289;BME280;24092;53.370;-6.588;2023-04-06T02:40:03;100683.81;;;7.27;100.00
38289;BME280;24092;53.370;-6.588;2023-04-06T02:42:30;100686.25;;;7.26;100.00
38289;BME280;24092;53.370;-6.588;2023-04-06T02:44:58;100685.24;;;6.95;100.00
38289;BME280;24092;53.370;-6.588;2023-04-06T02:47:25;100688.32;;;7.03;100.00
38289;BME280;24092;53.370;-6.588;2023-04-06T02:49:52;100690.53;;;6.92;100.00
38289;BME280;24092;53.370;-6.588;2023-04-06T02:52:19;100694.71;;;6.85;100.00
38289;BME280;24092;53.370;-6.588;2023-04-06T02:54:46;100694.49;;;6.86;100.00
38289;BME280;24092;53.370;-6.588;2023-04-06T02:57:13;100694.28;;;6.68;100.00
38289;BME280;24092;53.370;-6.588;2023-04-06T02:59:40;100695.77;;;6.74;100.00
38289;BME280;24092;53.370;-6.588;2023-04-06T03:02:07;100696.14;;;6.57;100.00
38289;BME280;24092;53.370;-6.588;2023-04-06T03:04:34;100696.22;;;7.25;100.00
38289;BME280;24092;53.370;-6.588;2023-04-06T03:07:01;100698.32;;;6.84;100.00
38289;BME280;24092;53.370;-6.588;2023-04-06T03:09:28;100697.43;;;7.13;100.00
38289;BME280;24092;53.370;-6.588;2023-04-06T03:11:56;100695.86;;;6.41;100.00
38289;BME280;24092;53.370;-6.588;2023-04-06T03:14:23;100698.97;;;6.13;100.00
38289;BME280;24092;53.370;-6.588;2023-04-06T03:16:51;100699.76;;;6.26;100.00
38289;BME280;24092;53.370;-6.588;2023-04-06T03:19:17;100700.98;;;5.67;100.00
38289;BME280;24092;53.370;-6.588;2023-04-06T03:21:44;100702.50;;;5.55;100.00
38289;BME280;24092;53.370;-6.588;2023-04-06T03:24:12;100704.91;;;5.29;100.00
38289;BME280;24092;53.370;-6.588;2023-04-06T03:26:39;100707.74;;;5.22;100.00
38289;BME280;24092;53.370;-6.588;2023-04-06T03:29:06;100708.41;;;5.19;100.00
38289;BME280;24092;53.370;-6.588;2023-04-06T03:31:33;100711.07;;;5.33;100.00
38289;BME280;24092;53.370;-6.588;2023-04-06T03:34:01;100699.33;;;4.62;100.00
38289;BME280;24092;53.370;-6.588;2023-04-06T03:36:28;100697.25;;;5.35;100.00
38289;BME280;24092;53.370;-6.588;2023-04-06T03:38:55;100695.36;;;6.04;100.00
38289;BME280;24092;53.370;-6.588;2023-04-06T03:41:22;100696.44;;;7.52;100.00
38289;BME280;24092;53.370;-6.588;2023-04-06T03:43:49;100694.32;;;7.56;100.00
38289;BME280;24092;53.370;-6.588;2023-04-06T03:46:16;100694.64;;;7.54;100.00
38289;BME280;24092;53.370;-6.588;2023-04-06T03:48:43;100695.70;;;7.77;100.00
38289;BME280;24092;53.370;-6.588;2023-04-06T03:51:10;100697.43;;;7.14;100.00
38289;BME280;24092;53.370;-6.588;2023-04-06T03:53:37;100693.59;;;7.20;100.00
38289;BME280;24092;53.370;-6.588;2023-04-06T03:56:05;100693.63;;;7.57;100.00
38289;BME280;24092;53.370;-6.588;2023-04-06T03:58:32;100690.97;;;7.76;100.00
38289;BME280;24092;53.370;-6.588;2023-04-06T04:00:59;100689.61;;;7.29;100.00
38289;BME280;24092;53.370;-6.588;2023-04-06T04:03:26;100691.76;;;7.74;100.00
38289;BME280;24092;53.370;-6.588;2023-04-06T04:05:53;100689.62;;;7.51;100.00
38289;BME280;24092;53.370;-6.588;2023-04-06T04:08:21;100690.20;;;7.36;100.00
38289;BME280;24092;53.370;-6.588;2023-04-06T04:10:48;100694.13;;;6.66;100.00
38289;BME280;24092;53.370;-6.588;2023-04-06T04:13:15;100697.67;;;6.74;100.00
38289;BME280;24092;53.370;-6.588;2023-04-06T04:15:42;100695.46;;;5.97;100.00
38289;BME280;24092;53.370;-6.588;2023-04-06T04:18:09;100696.42;;;6.21;100.00
38289;BME280;24092;53.370;-6.588;2023-04-06T04:20:36;100698.36;;;6.11;100.00
38289;BME280;24092;53.370;-6.588;2023-04-06T04:23:03;100701.72;;;5.63;100.00
38289;BME280;24092;53.370;-6.588;2023-04-06T04:25:31;100705.14;;;5.69;100.00
38289;BME280;24092;53.370;-6.588;2023-04-06T04:27:58;100701.84;;;5.06;100.00
38289;BME280;24092;53.370;-6.588;2023-04-06T04:30:25;100703.76;;;5.36;100.00
38289;BME280;24092;53.370;-6.588;2023-04-06T04:32:52;100702.79;;;5.42;100.00
38289;BME280;24092;53.370;-6.588;2023-04-06T04:35:19;100707.23;;;5.63;100.00
38289;BME280;24092;53.370;-6.588;2023-04-06T04:37:46;100710.11;;;5.97;100.00
38289;BME280;24092;53.370;-6.588;2023-04-06T04:40:13;100711.47;;;6.05;100.00
38289;BME280;24092;53.370;-6.588;2023-04-06T04:42:40;100713.04;;;6.51;100.00
38289;BME280;24092;53.370;-6.588;2023-04-06T04:45:08;100716.95;;;6.42;100.00
38289;BME280;24092;53.370;-6.588;2023-04-06T04:47:35;100718.80;;;6.60;100.00
38289;BME280;24092;53.370;-6.588;2023-04-06T04:50:03;100719.59;;;6.96;100.00
38289;BME280;24092;53.370;-6.588;2023-04-06T04:52:30;100719.02;;;6.98;100.00
38289;BME280;24092;53.370;-6.588;2023-04-06T04:54:57;100717.72;;;6.63;100.00
38289;BME280;24092;53.370;-6.588;2023-04-06T04:57:24;100717.29;;;6.83;100.00
38289;BME280;24092;53.370;-6.588;2023-04-06T04:59:51;100714.37;;;6.89;100.00
38289;BME280;24092;53.370;-6.588;2023-04-06T05:02:18;100718.02;;;7.54;100.00
38289;BME280;24092;53.370;-6.588;2023-04-06T05:04:45;100722.09;;;7.31;100.00
38289;BME280;24092;53.370;-6.588;2023-04-06T05:07:12;100723.27;;;6.81;100.00
38289;BME280;24092;53.370;-6.588;2023-04-06T05:09:39;100721.36;;;6.88;100.00
38289;BME280;24092;53.370;-6.588;2023-04-06T05:12:08;100723.24;;;7.19;100.00
38289;BME280;24092;53.370;-6.588;2023-04-06T05:14:36;100726.64;;;7.15;100.00
38289;BME280;24092;53.370;-6.588;2023-04-06T05:17:03;100728.22;;;7.07;100.00
38289;BME280;24092;53.370;-6.588;2023-04-06T05:19:30;100728.01;;;6.73;100.00
38289;BME280;24092;53.370;-6.588;2023-04-06T05:21:57;100731.87;;;7.20;100.00
38289;BME280;24092;53.370;-6.588;2023-04-06T05:24:24;100734.28;;;6.56;100.00
38289;BME280;24092;53.370;-6.588;2023-04-06T05:26:52;100734.83;;;6.22;100.00
38289;BME280;24092;53.370;-6.588;2023-04-06T05:29:20;100734.66;;;6.29;100.00
38289;BME280;24092;53.370;-6.588;2023-04-06T05:31:47;100736.69;;;6.33;100.00
38289;BME280;24092;53.370;-6.588;2023-04-06T05:34:14;100735.82;;;6.18;100.00
38289;BME280;24092;53.370;-6.588;2023-04-06T05:36:41;100737.88;;;6.23;100.00
38289;BME280;24092;53.370;-6.588;2023-04-06T05:39:08;100737.96;;;5.59;100.00
38289;BME280;24092;53.370;-6.588;2023-04-06T05:41:35;100741.58;;;5.77;100.00
38289;BME280;24092;53.370;-6.588;2023-04-06T05:44:02;100745.01;;;6.43;100.00
38289;BME280;24092;53.370;-6.588;2023-04-06T05:46:29;100748.25;;;6.62;100.00
38289;BME280;24092;53.370;-6.588;2023-04-06T05:48:56;100752.80;;;6.22;100.00
38289;BME280;24092;53.370;-6.588;2023-04-06T05:51:23;100755.93;;;6.41;100.00
38289;BME280;24092;53.370;-6.588;2023-04-06T05:53:51;100762.56;;;6.33;100.00
38289;BME280;24092;53.370;-6.588;2023-04-06T05:56:19;100766.09;;;5.59;100.00
38289;BME280;24092;53.370;-6.588;2023-04-06T05:58:46;100770.08;;;5.54;100.00
38289;BME280;24092;53.370;-6.588;2023-04-06T06:01:13;100771.04;;;6.24;100.00
38289;BME280;24092;53.370;-6.588;2023-04-06T06:03:40;100772.28;;;6.28;100.00
38289;BME280;24092;53.370;-6.588;2023-04-06T06:06:07;100772.59;;;6.26;100.00
38289;BME280;24092;53.370;-6.588;2023-04-06T06:08:34;100772.38;;;6.11;100.00
38289;BME280;24092;53.370;-6.588;2023-04-06T06:11:02;100773.70;;;6.33;100.00
38289;BME280;24092;53.370;-6.588;2023-04-06T06:13:29;100774.69;;;6.12;100.00
38289;BME280;24092;53.370;-6.588;2023-04-06T06:15:56;100773.59;;;5.84;100.00
38289;BME280;24092;53.370;-6.588;2023-04-06T06:18:23;100776.17;;;6.10;100.00
38289;BME280;24092;53.370;-6.588;2023-04-06T06:20:51;100777.36;;;5.29;100.00
38289;BME280;24092;53.370;-6.588;2023-04-06T06:23:18;100776.40;;;5.93;100.00
38289;BME280;24092;53.370;-6.588;2023-04-06T06:25:45;100777.35;;;5.70;100.00
38289;BME280;24092;53.370;-6.588;2023-04-06T06:28:14;100781.13;;;5.57;100.00
38289;BME280;24092;53.370;-6.588;2023-04-06T06:30:42;100786.19;;;5.36;100.00
38289;BME280;24092;53.370;-6.588;2023-04-06T06:33:09;100790.60;;;5.22;100.00
38289;BME280;24092;53.370;-6.588;2023-04-06T06:35:36;100793.45;;;5.05;100.00
38289;BME280;24092;53.370;-6.588;2023-04-06T06:38:03;100794.20;;;5.45;100.00
38289;BME280;24092;53.370;-6.588;2023-04-06T06:40:30;100795.11;;;5.55;100.00
38289;BME280;24092;53.370;-6.588;2023-04-06T06:42:57;100795.87;;;5.63;100.00
38289;BME280;24092;53.370;-6.588;2023-04-06T06:45:24;100799.05;;;5.96;100.00
38289;BME280;24092;53.370;-6.588;2023-04-06T06:47:51;100802.12;;;6.05;100.00
38289;BME280;24092;53.370;-6.588;2023-04-06T06:50:18;100807.16;;;6.24;100.00
38289;BME280;24092;53.370;-6.588;2023-04-06T06:52:45;100810.11;;;5.78;100.00
38289;BME280;24092;53.370;-6.588;2023-04-06T06:55:12;100814.93;;;5.89;100.00
38289;BME280;24092;53.370;-6.588;2023-04-06T06:57:40;100815.90;;;5.23;100.00
38289;BME280;24092;53.370;-6.588;2023-04-06T07:00:08;100816.52;;;4.53;100.00
38289;BME280;24092;53.370;-6.588;2023-04-06T07:02:35;100819.42;;;5.23;100.00
38289;BME280;24092;53.370;-6.588;2023-04-06T07:05:03;100821.18;;;5.15;100.00
38289;BME280;24092;53.370;-6.588;2023-04-06T07:07:32;100821.35;;;5.40;100.00
38289;BME280;24092;53.370;-6.588;2023-04-06T07:09:59;100820.69;;;5.94;100.00
38289;BME280;24092;53.370;-6.588;2023-04-06T07:12:27;100820.02;;;5.84;100.00
38289;BME280;24092;53.370;-6.588;2023-04-06T07:14:54;100829.70;;;4.52;100.00
38289;BME280;24092;53.370;-6.588;2023-04-06T07:17:22;100832.64;;;4.68;100.00
38289;BME280;24092;53.370;-6.588;2023-04-06T07:19:49;100829.72;;;5.17;100.00
38289;BME280;24092;53.370;-6.588;2023-04-06T07:22:16;100834.51;;;4.34;100.00
38289;BME280;24092;53.370;-6.588;2023-04-06T07:24:43;100835.20;;;4.33;100.00
38289;BME280;24092;53.370;-6.588;2023-04-06T07:27:11;100838.31;;;5.34;100.00
38289;BME280;24092;53.370;-6.588;2023-04-06T07:29:38;100839.06;;;5.50;100.00
38289;BME280;24092;53.370;-6.588;2023-04-06T07:32:05;100844.86;;;5.19;100.00
38289;BME280;24092;53.370;-6.588;2023-04-06T07:34:32;100841.98;;;3.34;100.00
38289;BME280;24092;53.370;-6.588;2023-04-06T07:36:59;100844.20;;;3.36;100.00
38289;BME280;24092;53.370;-6.588;2023-04-06T07:39:28;100848.78;;;5.04;100.00
38289;BME280;24092;53.370;-6.588;2023-04-06T07:41:55;100850.16;;;5.21;100.00
38289;BME280;24092;53.370;-6.588;2023-04-06T07:44:22;100850.44;;;4.72;100.00
38289;BME280;24092;53.370;-6.588;2023-04-06T07:46:50;100847.10;;;5.55;100.00
38289;BME280;24092;53.370;-6.588;2023-04-06T07:49:18;100849.00;;;5.16;100.00
38289;BME280;24092;53.370;-6.588;2023-04-06T07:51:45;100849.70;;;5.79;100.00
38289;BME280;24092;53.370;-6.588;2023-04-06T07:54:12;100853.26;;;5.38;100.00
38289;BME280;24092;53.370;-6.588;2023-04-06T07:56:39;100850.34;;;5.70;100.00
38289;BME280;24092;53.370;-6.588;2023-04-06T07:59:06;100851.21;;;4.43;100.00
38289;BME280;24092;53.370;-6.588;2023-04-06T08:01:33;100855.10;;;4.24;100.00
38289;BME280;24092;53.370;-6.588;2023-04-06T08:04:00;100851.56;;;4.62;100.00
38289;BME280;24092;53.370;-6.588;2023-04-06T08:06:27;100852.43;;;6.48;100.00
38289;BME280;24092;53.370;-6.588;2023-04-06T08:08:54;100853.62;;;6.13;100.00
38289;BME280;24092;53.370;-6.588;2023-04-06T08:11:22;100855.47;;;5.24;100.00
38289;BME280;24092;53.370;-6.588;2023-04-06T08:13:49;100859.18;;;4.77;100.00
38289;BME280;24092;53.370;-6.588;2023-04-06T08:16:16;100861.97;;;4.66;100.00
38289;BME280;24092;53.370;-6.588;2023-04-06T08:18:43;100864.82;;;4.08;100.00
38289;BME280;24092;53.370;-6.588;2023-04-06T08:21:10;100867.41;;;3.61;100.00
38289;BME280;24092;53.370;-6.588;2023-04-06T08:23:37;100865.60;;;6.04;100.00
38289;BME280;24092;53.370;-6.588;2023-04-06T08:26:05;100862.89;;;5.57;100.00
38289;BME280;24092;53.370;-6.588;2023-04-06T08:28:32;100873.64;;;4.73;100.00
38289;BME280;24092;53.370;-6.588;2023-04-06T08:30:59;100869.48;;;5.38;100.00
38289;BME280;24092;53.370;-6.588;2023-04-06T08:33:29;100878.23;;;5.03;100.00
38289;BME280;24092;53.370;-6.588;2023-04-06T08:35:56;100881.15;;;4.73;100.00
38289;BME280;24092;53.370;-6.588;2023-04-06T08:38:23;100884.36;;;3.08;100.00
38289;BME280;24092;53.370;-6.588;2023-04-06T08:40:51;100881.72;;;6.07;100.00
38289;BME280;24092;53.370;-6.588;2023-04-06T08:43:20;100888.74;;;6.04;100.00
38289;BME280;24092;53.370;-6.588;2023-04-06T08:45:49;100892.26;;;6.11;100.00
38289;BME280;24092;53.370;-6.588;2023-04-06T08:48:17;100900.52;;;4.74;100.00
38289;BME280;24092;53.370;-6.588;2023-04-06T08:50:45;100898.65;;;5.90;100.00
38289;BME280;24092;53.370;-6.588;2023-04-06T08:53:13;100902.97;;;6.96;100.00
38289;BME280;24092;53.370;-6.588;2023-04-06T08:55:43;100904.48;;;6.12;100.00
38289;BME280;24092;53.370;-6.588;2023-04-06T08:58:10;100912.83;;;5.04;100.00
38289;BME280;24092;53.370;-6.588;2023-04-06T09:00:38;100912.51;;;5.53;100.00
38289;BME280;24092;53.370;-6.588;2023-04-06T09:03:07;100915.76;;;3.89;100.00
38289;BME280;24092;53.370;-6.588;2023-04-06T09:05:35;100917.41;;;6.02;100.00
38289;BME280;24092;53.370;-6.588;2023-04-06T09:08:03;100919.25;;;5.13;100.00
38289;BME280;24092;53.370;-6.588;2023-04-06T09:10:31;100920.41;;;6.79;100.00
38289;BME280;24092;53.370;-6.588;2023-04-06T09:13:04;100921.96;;;6.65;100.00
38289;BME280;24092;53.370;-6.588;2023-04-06T09:15:31;100928.79;;;6.47;100.00
38289;BME280;24092;53.370;-6.588;2023-04-06T09:17:58;100936.46;;;5.58;100.00
38289;BME280;24092;53.370;-6.588;2023-04-06T09:20:26;100939.78;;;5.58;100.00
38289;BME280;24092;53.370;-6.588;2023-04-06T09:22:54;100935.46;;;6.16;100.00
38289;BME280;24092;53.370;-6.588;2023-04-06T09:25:23;100940.31;;;6.12;100.00
38289;BME280;24092;53.370;-6.588;2023-04-06T09:27:59;100947.55;;;7.00;100.00
38289;BME280;24092;53.370;-6.588;2023-04-06T09:30:27;100951.32;;;6.96;100.00
38289;BME280;24092;53.370;-6.588;2023-04-06T09:32:55;100955.86;;;5.03;100.00
38289;BME280;24092;53.370;-6.588;2023-04-06T09:35:22;100959.22;;;4.98;100.00
38289;BME280;24092;53.370;-6.588;2023-04-06T09:37:51;100960.22;;;5.54;100.00
38289;BME280;24092;53.370;-6.588;2023-04-06T09:40:19;100963.12;;;5.36;100.00
38289;BME280;24092;53.370;-6.588;2023-04-06T09:42:47;100966.52;;;5.79;100.00
38289;BME280;24092;53.370;-6.588;2023-04-06T09:45:15;100968.04;;;5.10;100.00
38289;BME280;24092;53.370;-6.588;2023-04-06T09:47:44;100963.39;;;6.93;100.00
38289;BME280;24092;53.370;-6.588;2023-04-06T09:50:12;100965.90;;;5.39;100.00
38289;BME280;24092;53.370;-6.588;2023-04-06T09:52:46;100965.13;;;6.87;100.00
38289;BME280;24092;53.370;-6.588;2023-04-06T09:55:23;100968.54;;;5.80;100.00
38289;BME280;24092;53.370;-6.588;2023-04-06T09:57:59;100975.48;;;6.59;100.00
38289;BME280;24092;53.370;-6.588;2023-04-06T10:00:32;100980.20;;;5.95;100.00
38289;BME280;24092;53.370;-6.588;2023-04-06T10:03:08;100983.64;;;5.09;100.00
38289;BME280;24092;53.370;-6.588;2023-04-06T10:05:43;100983.39;;;4.52;100.00
38289;BME280;24092;53.370;-6.588;2023-04-06T10:08:19;100984.23;;;4.50;100.00
38289;BME280;24092;53.370;-6.588;2023-04-06T10:10:51;100986.98;;;4.88;100.00
38289;BME280;24092;53.370;-6.588;2023-04-06T10:13:19;100984.86;;;4.39;100.00
38289;BME280;24092;53.370;-6.588;2023-04-06T10:15:46;100991.97;;;3.12;100.00
38289;BME280;24092;53.370;-6.588;2023-04-06T10:18:14;100993.15;;;4.09;100.00
38289;BME280;24092;53.370;-6.588;2023-04-06T10:20:45;100992.33;;;3.71;100.00
38289;BME280;24092;53.370;-6.588;2023-04-06T10:23:19;100997.44;;;3.70;100.00
38289;BME280;24092;53.370;-6.588;2023-04-06T10:25:54;101000.44;;;4.51;100.00
38289;BME280;24092;53.370;-6.588;2023-04-06T10:28:21;101007.41;;;5.90;100.00
38289;BME280;24092;53.370;-6.588;2023-04-06T10:30:49;101009.32;;;5.24;100.00
38289;BME280;24092;53.370;-6.588;2023-04-06T10:33:23;101009.16;;;3.29;100.00
38289;BME280;24092;53.370;-6.588;2023-04-06T10:35:50;101007.82;;;3.38;100.00
38289;BME280;24092;53.370;-6.588;2023-04-06T10:38:20;101012.59;;;6.40;100.00
38289;BME280;24092;53.370;-6.588;2023-04-06T10:40:48;101011.87;;;5.32;100.00
38289;BME280;24092;53.370;-6.588;2023-04-06T10:43:22;101013.78;;;4.22;100.00
38289;BME280;24092;53.370;-6.588;2023-04-06T10:45:56;101013.51;;;4.30;100.00
38289;BME280;24092;53.370;-6.588;2023-04-06T10:48:23;101024.72;;;3.84;100.00
38289;BME280;24092;53.370;-6.588;2023-04-06T10:50:52;101025.54;;;3.49;100.00
38289;BME280;24092;53.370;-6.588;2023-04-06T10:53:23;101021.96;;;4.73;100.00
38289;BME280;24092;53.370;-6.588;2023-04-06T10:55:51;101023.41;;;4.83;100.00
38289;BME280;24092;53.370;-6.588;2023-04-06T10:58:19;101024.56;;;4.58;100.00
38289;BME280;24092;53.370;-6.588;2023-04-06T11:00:47;101026.90;;;5.72;100.00
38289;BME280;24092;53.370;-6.588;2023-04-06T11:03:16;101028.10;;;5.62;100.00
38289;BME280;24092;53.370;-6.588;2023-04-06T11:05:44;101028.97;;;6.50;100.00
38289;BME280;24092;53.370;-6.588;2023-04-06T11:08:22;101035.48;;;5.44;100.00
38289;BME280;24092;53.370;-6.588;2023-04-06T11:10:50;101036.60;;;5.62;100.00
38289;BME280;24092;53.370;-6.588;2023-04-06T11:13:18;101037.22;;;5.74;100.00
38289;BME280;24092;53.370;-6.588;2023-04-06T11:15:45;101038.20;;;5.97;100.00
38289;BME280;24092;53.370;-6.588;2023-04-06T11:18:12;101031.93;;;5.27;100.00
38289;BME280;24092;53.370;-6.588;2023-04-06T11:20:47;101029.33;;;5.86;100.00
38289;BME280;24092;53.370;-6.588;2023-04-06T11:23:22;101033.36;;;4.26;100.00
38289;BME280;24092;53.370;-6.588;2023-04-06T11:25:51;101037.64;;;4.21;100.00
38289;BME280;24092;53.370;-6.588;2023-04-06T11:28:18;101038.74;;;4.74;100.00
38289;BME280;24092;53.370;-6.588;2023-04-06T11:30:47;101046.41;;;6.42;100.00
38289;BME280;24092;53.370;-6.588;2023-04-06T11:33:20;101048.59;;;5.03;100.00
38289;BME280;24092;53.370;-6.588;2023-04-06T11:35:47;101049.95;;;5.71;100.00
38289;BME280;24092;53.370;-6.588;2023-04-06T11:38:15;101045.46;;;5.39;100.00
38289;BME280;24092;53.370;-6.588;2023-04-06T11:40:44;101046.55;;;5.00;100.00
38289;BME280;24092;53.370;-6.588;2023-04-06T11:43:12;101053.96;;;6.31;100.00
38289;BME280;24092;53.370;-6.588;2023-04-06T11:45:42;101056.21;;;6.01;100.00
38289;BME280;24092;53.370;-6.588;2023-04-06T11:48:18;101054.76;;;5.31;100.00
38289;BME280;24092;53.370;-6.588;2023-04-06T11:50:47;101062.27;;;6.29;100.00
38289;BME280;24092;53.370;-6.588;2023-04-06T11:53:14;101058.05;;;4.87;100.00
38289;BME280;24092;53.370;-6.588;2023-04-06T11:55:41;101057.90;;;7.07;100.00
38289;BME280;24092;53.370;-6.588;2023-04-06T11:58:08;101055.83;;;6.68;100.00
38289;BME280;24092;53.370;-6.588;2023-04-06T12:00:34;101059.85;;;6.19;100.00
38289;BME280;24092;53.370;-6.588;2023-04-06T12:03:01;101060.17;;;5.77;100.00
38289;BME280;24092;53.370;-6.588;2023-04-06T12:05:28;101058.22;;;5.81;100.00
38289;BME280;24092;53.370;-6.588;2023-04-06T12:07:56;101057.63;;;5.33;100.00
38289;BME280;24092;53.370;-6.588;2023-04-06T12:10:23;101058.58;;;6.44;100.00
38289;BME280;24092;53.370;-6.588;2023-04-06T12:12:50;101056.92;;;7.12;100.00
38289;BME280;24092;53.370;-6.588;2023-04-06T12:15:18;101054.08;;;7.14;100.00
38289;BME280;24092;53.370;-6.588;2023-04-06T12:17:44;101049.68;;;7.67;100.00
38289;BME280;24092;53.370;-6.588;2023-04-06T12:20:11;101048.87;;;8.35;100.00
38289;BME280;24092;53.370;-6.588;2023-04-06T12:22:39;101043.56;;;6.89;100.00
38289;BME280;24092;53.370;-6.588;2023-04-06T12:25:06;101046.61;;;7.53;100.00
38289;BME280;24092;53.370;-6.588;2023-04-06T12:27:34;101055.35;;;5.60;100.00
38289;BME280;24092;53.370;-6.588;2023-04-06T12:30:01;101054.02;;;6.19;100.00
38289;BME280;24092;53.370;-6.588;2023-04-06T12:32:27;101064.59;;;5.88;100.00
38289;BME280;24092;53.370;-6.588;2023-04-06T12:34:55;101061.01;;;6.84;100.00
38289;BME280;24092;53.370;-6.588;2023-04-06T12:37:22;101062.20;;;8.47;100.00
38289;BME280;24092;53.370;-6.588;2023-04-06T12:39:49;101059.07;;;8.33;100.00
38289;BME280;24092;53.370;-6.588;2023-04-06T12:42:16;101060.17;;;8.20;100.00